• Join FlightAware (Why Join?)
  • Login
  • US Flag 
12:28PM EDT


 

Airport Tracker/Info


-or-


 

Live Flight TrackerFlight Track Log ✈ EJA122 ✈ 11-Jul-2013 ✈ KMZZ - KORL

Flight Track Log - Related Links

Times and Time Zones

All times are in EDT time to prevent confusion due to time zone crossing. See the EJA122 flight status page for this flight to view local times or setup timezone preferences in your user account.

Time Position Orientation Groundspeed Altitude Reporting Facility
EDT Latitude Longitude Course Direction KTS MPH feet Rate Location/Type
10:02AM 40.5011 -85.6683 326° Northwest 158 182 1,500  Level Chicago Center
10:03AM 40.5275 -85.6914 326° Northwest 207 238 3,500 2,820 Climbing Chicago Center
10:04AM 40.4764 -85.7297 210° Southwest 264 304 6,400 2,820 Climbing Chicago Center
10:05AM 40.4056 -85.6825 153° Southeast 269 310 9,500 1,680 Climbing Chicago Center
10:06AM 40.3308 -85.6231 149° Southeast 306 352 10,000 180 Climbing Chicago Center
10:07AM 40.2406 -85.5531 149° Southeast 360 414 10,000 600 Level Indianapolis Center
10:08AM 40.1378 -85.4703 148° Southeast 363 418 11,300 1,260 Climbing Indianapolis Center
10:09AM 40.0514 -85.4011 148° Southeast 362 417 12,700 1,320 Climbing Indianapolis Center
10:10AM 39.9642 -85.3311 148° Southeast 367 422 14,100 1,440 Climbing Indianapolis Center
10:11AM 39.8778 -85.2642 149° Southeast 362 417 15,700 1,500 Climbing Indianapolis Center
10:12AM 39.7922 -85.1956 148° Southeast 361 415 17,200 1,440 Climbing Indianapolis Center
10:13AM 39.7089 -85.1303 149° Southeast 354 407 18,700 1,560 Climbing Indianapolis Center
10:14AM 39.6056 -85.0492 149° Southeast 359 413 20,500 1,620 Climbing Indianapolis Center
10:15AM 39.5192 -84.9817 149° Southeast 362 417 22,100 1,500 Climbing Indianapolis Center
10:16AM 39.4319 -84.9136 149° Southeast 366 421 23,600 1,380 Climbing Indianapolis Center
10:17AM 39.3372 -84.8392 149° Southeast 364 419 25,000 1,260 Climbing Indianapolis Center
10:18AM 39.2456 -84.7686 149° Southeast 375 432 26,300 1,200 Climbing Indianapolis Center
10:19AM 39.1539 -84.6969 149° Southeast 382 440 27,600 1,200 Climbing Indianapolis Center
10:20AM 39.0639 -84.6267 149° Southeast 378 435 28,900 1,200 Climbing Indianapolis Center
10:21AM 38.9728 -84.5572 149° Southeast 379 436 30,100 1,140 Climbing Indianapolis Center
10:22AM 38.8831 -84.4889 149° Southeast 373 429 31,300 1,020 Climbing Indianapolis Center
10:23AM 38.7764 -84.4075 149° Southeast 380 437 32,300 840 Climbing Indianapolis Center
10:24AM 38.6819 -84.3372 150° Southeast 389 448 33,100 780 Climbing Indianapolis Center
10:25AM 38.5964 -84.2722 149° Southeast 390 449 34,000 900 Climbing Indianapolis Center
10:26AM 38.4953 -84.1719 142° Southeast 396 456 35,000 480 Climbing Indianapolis Center
10:27AM 38.4033 -84.0894 145° Southeast 402 463 35,000  Level Indianapolis Center
10:28AM 38.3006 -84.0175 151° Southeast 418 481 35,000  Level Indianapolis Center
10:30AM 38.1925 -83.9461 153° Southeast 434 499 35,000  Level Indianapolis Center
10:31AM 38.0831 -83.8742 153° Southeast 440 506 35,000  Level Indianapolis Center
10:32AM 37.9550 -83.7872 152° Southeast 446 513 35,000  Level Indianapolis Center
10:33AM 37.8431 -83.7125 152° Southeast 451 519 35,000  Level Indianapolis Center
10:34AM 37.7311 -83.6394 153° Southeast 451 519 35,000  Level Indianapolis Center
10:35AM 37.6208 -83.5536 148° Southeast 460 529 35,000  Level Indianapolis Center
10:36AM 37.5164 -83.4544 143° Southeast 469 540 35,000  Level Indianapolis Center
10:37AM 37.3947 -83.3431 144° Southeast 465 535 35,000  Level Indianapolis Center
10:38AM 37.2906 -83.2469 144° Southeast 464 534 35,000  Level Indianapolis Center
10:39AM 37.1864 -83.1503 144° Southeast 464 534 35,000  Level Indianapolis Center
10:40AM 37.0822 -83.0525 143° Southeast 465 535 35,000  Level Indianapolis Center
10:41AM 36.9775 -82.9614 145° Southeast 462 532 35,000  Level Indianapolis Center
10:42AM 36.8572 -82.8936 156° South 472 543 35,000  Level Indianapolis Center
10:43AM 36.7311 -82.8261 157° South 450 518 35,000  Level Indianapolis Center
10:44AM 36.6147 -82.7636 157° South 447 514 35,000  Level Atlanta Center
10:45AM 36.5014 -82.7036 157° South 442 509 35,000  Level Atlanta Center
10:46AM 36.3861 -82.6436 157° South 437 503 35,000  Level Atlanta Center
10:47AM 36.2750 -82.5811 156° South 437 503 35,000  Level Atlanta Center
10:48AM 36.1614 -82.5214 157° South 442 509 35,000  Level Atlanta Center
10:49AM 36.0481 -82.4619 157° South 442 509 35,000  Level Atlanta Center
10:50AM 35.9325 -82.4000 157° South 442 509 35,000  Level Atlanta Center
10:51AM 35.8211 -82.3408 157° South 442 509 35,000  Level Atlanta Center
10:52AM 35.7183 -82.2867 157° South 442 509 35,000  Level Atlanta Center
10:53AM 35.6069 -82.2303 158° South 437 503 35,000  Level Atlanta Center
10:54AM 35.4869 -82.1692 157° South 451 519 35,000  Level Atlanta Center
10:55AM 35.3672 -82.1083 157° South 458 527 35,000  Level Atlanta Center
10:56AM 35.2514 -82.0447 156° South 458 527 35,000  Level Atlanta Center
10:57AM 35.1336 -81.9867 158° South 458 527 35,000  Level Atlanta Center
10:58AM 35.0136 -81.9289 158° South 458 527 35,000  Level Atlanta Center
10:59AM 34.8878 -81.8939 167° South 458 527 35,000  Level Atlanta Center
11:00AM 34.7536 -81.8594 168° South 458 527 35,000  Level Atlanta Center
11:02AM 34.4992 -81.7892 167° South 474 545 35,000  Level Jacksonville Center
11:03AM 34.3739 -81.7556 168° South 469 540 35,000  Level Jacksonville Center
11:04AM 34.2503 -81.7244 168° South 464 534 35,000 -60 Level Jacksonville Center
11:05AM 34.1228 -81.6936 169° South 464 534 34,900 -420 Descending Jacksonville Center
11:06AM 33.9972 -81.6578 167° South 469 540 34,200 -480 Descending Jacksonville Center
11:07AM 33.8697 -81.6269 169° South 469 540 34,000 -120 Descending Jacksonville Center
11:08AM 33.7419 -81.5939 168° South 469 540 34,000  Level Jacksonville Center
11:09AM 33.6122 -81.5608 168° South 469 540 34,000  Level Jacksonville Center
11:10AM 33.4847 -81.5278 168° South 469 540 34,000  Level Jacksonville Center
11:11AM 33.3569 -81.4975 169° South 469 540 34,000  Level Jacksonville Center
11:12AM 33.2253 -81.4647 168° South 469 540 34,000  Level Jacksonville Center
11:13AM 33.1017 -81.4394 170° South 469 540 34,000  Level Jacksonville Center
11:14AM 32.9867 -81.4092 168° South 463 533 34,000  Level Jacksonville Center
11:15AM 32.8631 -81.3767 168° South 463 533 34,000  Level Jacksonville Center
11:16AM 32.7394 -81.3489 169° South 463 533 34,000  Level Jacksonville Center
11:17AM 32.6033 -81.3144 168° South 463 533 34,000  Level Jacksonville Center
11:18AM 32.4903 -81.2867 168° South 468 539 34,000  Level Jacksonville Center
11:19AM 32.3606 -81.2522 167° South 474 545 34,000  Level Jacksonville Center
11:20AM 32.2369 -81.2225 169° South 468 539 34,000  Level Jacksonville Center
11:21AM 32.1114 -81.2003 171° South 468 539 34,000  Level Jacksonville Center
11:22AM 31.9797 -81.1953 178° South 468 539 34,000  Level Jacksonville Center
11:23AM 31.8356 -81.1881 178° South 468 539 34,000  Level Jacksonville Center
11:24AM 31.7083 -81.1856 179° South 463 533 34,000  Level Jacksonville Center
11:25AM 31.5892 -81.1828 179° South 463 533 34,000  Level Jacksonville Center
11:26AM 31.4472 -81.1781 178° South 468 539 34,000  Level Jacksonville Center
11:27AM 31.3156 -81.1758 179° South 468 539 34,000  Level Jacksonville Center
11:28AM 31.1861 -81.1708 178° South 468 539 34,000 -300 Level Jacksonville Center
11:29AM 31.0567 -81.1683 179° South 475 547 33,500 -900 Descending Jacksonville Center
11:30AM 30.9292 -81.1633 178° South 469 540 32,300 -1,260 Descending Jacksonville Center
11:31AM 30.8017 -81.1583 178° South 464 534 31,000 -1,260 Descending Jacksonville Center
11:32AM 30.6681 -81.1536 178° South 464 534 29,800 -1,200 Descending Jacksonville Center
11:33AM 30.5364 -81.1511 179° South 470 541 28,600 -1,260 Descending Jacksonville Center
11:34AM 30.4050 -81.1464 178° South 475 547 27,300 -1,260 Descending Jacksonville Center
11:35AM 30.2733 -81.1417 178° South 475 547 26,100 -1,320 Descending Jacksonville Center
11:36AM 30.1439 -81.1392 179° South 470 541 24,700 -1,680 Descending Jacksonville Center
11:37AM 30.0164 -81.1342 178° South 470 541 22,800 -1,920 Descending Jacksonville Center
11:38AM 29.8931 -81.1294 178° South 463 533 20,900 -1,860 Descending Jacksonville Center
11:39AM 29.7761 -81.1292 180° South 450 518 19,100 -2,460 Descending Jacksonville Center
11:40AM 29.6758 -81.1236 177° South 379 436 16,200 -3,240 Descending Jacksonville Center
11:41AM 29.5925 -81.1228 180° South 347 399 13,400 -3,000 Descending Jacksonville Center
11:42AM 29.4942 -81.1197 178° South 342 394 10,800 -2,280 Descending Jacksonville Center
11:43AM 29.4086 -81.1167 178° South 297 342 8,800 -2,100 Descending Jacksonville Center
11:44AM 29.3294 -81.1181 181° South 255 293 6,600 -1,380 Descending Jacksonville Center
11:45AM 29.2606 -81.1239 184° South 241 277 6,000 -600 Descending Jacksonville Center
11:46AM 29.1836 -81.1372 189° South 252 290 5,400 -480 Descending Jacksonville Center
11:47AM 29.1128 -81.1600 196° South 252 290 5,000 -240 Descending Jacksonville Center
11:48AM 29.0442 -81.1706 188° South 257 296 5,000  Level Jacksonville Center
11:49AM 28.9836 -81.1789 187° South 245 282 5,000 -60 Level Jacksonville Center
11:50AM 28.9250 -81.1681 171° South 227 261 4,900 -600 Descending Jacksonville Center
11:51AM 28.8644 -81.1572 171° South 222 255 3,800 -1,140 Descending Jacksonville Center
11:52AM 28.8333 -81.1500 169° South 210 242 3,100 -540 Descending Orlando TRACON
11:53AM 28.7667 -81.1333 168° South 218 251 2,900 -720 Descending Orlando TRACON
11:54AM 28.7000 -81.1667 204° Southwest 214 246 1,600 -720 Descending Orlando TRACON
11:55AM 28.6500 -81.2000 210° Southwest 209 241 1,500 -60 Descending Orlando TRACON
11:56AM 28.6000 -81.2167 196° South 153 176 1,500  Level Orlando TRACON
11:57AM 28.5833 -81.2333 221° Southwest 113 130 1,500 -300 Level Orlando TRACON
11:58AM 28.5667 -81.2833 249° West 120 138 1,000 -600 Descending Orlando TRACON
11:59AM 28.5500 -81.3167 240° Southwest 131 151 300 -720 Descending Orlando TRACON
12:01PM 28.5333 -81.3167 221° Southwest  Level FlightAware Approximate
12:08PM 28.5455 -81.3329 221° Southwest  Level Estimated
12:09PM 28.5455 -81.3329 221° Southwest  Level Estimated
12:10PM 28.5455 -81.3329 221° Southwest  Level Estimated